createdAt,value
2023-04-09T00:01:11.278Z,11.10
2023-04-09T00:03:40.500Z,11.10
2023-04-09T00:06:08.874Z,11.00
2023-04-09T00:08:36.820Z,11.00
2023-04-09T00:11:05.730Z,11.00
2023-04-09T00:13:39.196Z,11.00
2023-04-09T00:16:09.660Z,11.10
2023-04-09T00:18:37.635Z,11.00
2023-04-09T00:21:05.933Z,11.10
2023-04-09T00:23:33.851Z,10.90
2023-04-09T00:26:01.994Z,11.00
2023-04-09T00:28:29.824Z,11.00
2023-04-09T00:30:57.720Z,11.00
2023-04-09T00:33:27.211Z,11.00
2023-04-09T00:35:55.631Z,11.00
2023-04-09T00:38:23.728Z,11.00
2023-04-09T00:40:52.189Z,11.00
2023-04-09T00:43:20.541Z,10.90
2023-04-09T00:45:48.763Z,10.90
2023-04-09T00:48:18.194Z,10.80
2023-04-09T00:50:47.806Z,10.80
2023-04-09T00:53:17.018Z,10.90
2023-04-09T00:55:45.713Z,10.80
2023-04-09T00:58:13.700Z,10.80
2023-04-09T01:00:41.611Z,10.80
2023-04-09T01:03:09.952Z,10.70
2023-04-09T01:05:48.522Z,10.70
2023-04-09T01:08:33.703Z,10.70
2023-04-09T01:11:11.469Z,10.70
2023-04-09T01:13:47.121Z,10.70
2023-04-09T01:16:17.927Z,10.70
2023-04-09T01:18:51.506Z,10.80
2023-04-09T01:21:24.358Z,10.80
2023-04-09T01:24:03.727Z,10.70
2023-04-09T01:26:44.646Z,10.70
2023-04-09T01:29:16.522Z,10.60
2023-04-09T01:31:46.298Z,10.60
2023-04-09T01:34:15.312Z,10.60
2023-04-09T01:36:46.082Z,10.60
2023-04-09T01:39:14.219Z,10.50
2023-04-09T01:41:43.283Z,10.50
2023-04-09T01:44:14.094Z,10.50
2023-04-09T01:46:42.539Z,10.50
2023-04-09T01:49:12.693Z,10.50
2023-04-09T01:51:42.539Z,10.40
2023-04-09T01:54:11.038Z,10.40
2023-04-09T01:56:43.080Z,10.30
2023-04-09T01:59:11.100Z,10.30
2023-04-09T02:01:46.475Z,10.30
2023-04-09T02:04:21.087Z,10.30
2023-04-09T02:06:56.340Z,10.30
2023-04-09T02:09:26.047Z,10.30
2023-04-09T02:11:54.833Z,10.30
2023-04-09T02:14:26.537Z,10.30
2023-04-09T02:16:56.416Z,10.30
2023-04-09T02:19:24.341Z,10.30
2023-04-09T02:21:52.300Z,10.30
2023-04-09T02:24:20.167Z,10.30
2023-04-09T02:26:48.090Z,10.30
2023-04-09T02:29:15.970Z,10.30
2023-04-09T02:32:13.888Z,10.30
2023-04-09T02:34:46.210Z,10.30
2023-04-09T02:37:14.905Z,10.30
2023-04-09T02:39:45.924Z,10.20
2023-04-09T02:42:14.860Z,10.20
2023-04-09T02:44:44.487Z,10.20
2023-04-09T02:47:17.390Z,10.20
2023-04-09T02:49:49.410Z,10.20
2023-04-09T02:52:25.295Z,10.10
2023-04-09T02:54:55.632Z,10.00
2023-04-09T02:57:24.413Z,10.00
2023-04-09T03:00:04.673Z,9.90
2023-04-09T03:02:34.351Z,9.90
2023-04-09T03:05:02.470Z,10.00
2023-04-09T03:07:30.510Z,10.00
2023-04-09T03:09:58.442Z,9.90
2023-04-09T03:12:26.371Z,9.90
2023-04-09T03:14:54.440Z,9.90
2023-04-09T03:17:25.667Z,9.70
2023-04-09T03:19:55.103Z,9.50
2023-04-09T03:22:23.057Z,9.50
2023-04-09T03:24:50.990Z,9.50
2023-04-09T03:27:18.915Z,9.40
2023-04-09T03:29:46.778Z,9.40
2023-04-09T03:32:14.797Z,9.40
2023-04-09T03:34:43.125Z,9.30
2023-04-09T03:37:12.446Z,9.30
2023-04-09T03:39:40.346Z,9.20
2023-04-09T03:42:08.364Z,9.00
2023-04-09T03:44:36.248Z,8.90
2023-04-09T03:47:04.298Z,8.90
2023-04-09T03:49:32.210Z,8.80
2023-04-09T03:52:00.103Z,8.70
2023-04-09T03:54:31.901Z,8.60
2023-04-09T03:57:00.027Z,8.50
2023-04-09T03:59:27.961Z,8.50
2023-04-09T04:01:55.866Z,8.40
2023-04-09T04:04:24.144Z,8.30
2023-04-09T04:06:52.289Z,8.20
2023-04-09T04:09:20.256Z,8.20
2023-04-09T04:11:49.640Z,8.10
2023-04-09T04:14:17.604Z,8.10
2023-04-09T04:16:45.570Z,8.00
2023-04-09T04:19:13.469Z,8.00
2023-04-09T04:21:41.376Z,8.00
2023-04-09T04:24:09.262Z,8.00
2023-04-09T04:26:37.188Z,8.00
2023-04-09T04:29:06.551Z,7.90
2023-04-09T04:31:34.502Z,7.90
2023-04-09T04:34:02.496Z,7.90
2023-04-09T04:36:30.682Z,8.00
2023-04-09T04:38:58.634Z,8.00
2023-04-09T04:41:26.521Z,8.00
2023-04-09T04:44:00.801Z,8.00
2023-04-09T04:46:37.682Z,8.00
2023-04-09T04:49:11.841Z,8.10
2023-04-09T04:51:43.956Z,8.00
2023-04-09T04:54:14.697Z,8.00
2023-04-09T04:56:47.873Z,8.10
2023-04-09T04:59:30.067Z,8.10
2023-04-09T05:02:09.176Z,8.20
2023-04-09T05:04:43.348Z,8.10
2023-04-09T05:07:21.936Z,8.20
2023-04-09T05:10:13.166Z,8.10
2023-04-09T05:12:55.902Z,8.20
2023-04-09T05:16:00.559Z,8.30
2023-04-09T05:18:40.764Z,8.30
2023-04-09T05:21:25.089Z,8.40
2023-04-09T05:24:05.392Z,8.40
2023-04-09T05:26:54.016Z,8.50
2023-04-09T05:29:31.418Z,8.30
2023-04-09T05:32:05.727Z,8.00
2023-04-09T05:34:44.243Z,7.90
2023-04-09T05:37:18.895Z,8.10
2023-04-09T05:39:53.791Z,8.20
2023-04-09T05:42:34.737Z,8.10
2023-04-09T05:45:14.624Z,8.10
2023-04-09T05:47:50.935Z,8.30
2023-04-09T05:50:51.137Z,8.40
2023-04-09T05:53:46.612Z,8.50
2023-04-09T05:56:37.678Z,8.60
2023-04-09T05:59:15.445Z,8.70
2023-04-09T06:02:04.569Z,8.80
2023-04-09T06:04:41.954Z,8.70
2023-04-09T06:07:11.984Z,8.50
2023-04-09T06:09:41.193Z,8.50
2023-04-09T06:12:12.322Z,8.50
2023-04-09T06:14:44.190Z,8.50
2023-04-09T06:17:13.825Z,8.60
2023-04-09T06:19:44.128Z,8.60
2023-04-09T06:22:13.582Z,8.50
2023-04-09T06:24:41.566Z,8.40
2023-04-09T06:27:09.493Z,8.40
2023-04-09T06:29:37.365Z,8.50
2023-04-09T06:32:05.892Z,8.60
2023-04-09T06:34:33.777Z,8.70
2023-04-09T06:37:01.647Z,8.80
2023-04-09T06:39:30.994Z,8.90
2023-04-09T06:41:59.157Z,9.00
2023-04-09T06:44:27.566Z,9.10
2023-04-09T06:46:55.611Z,9.30
2023-04-09T06:49:23.772Z,9.30
2023-04-09T06:51:53.411Z,9.30
2023-04-09T06:54:21.389Z,9.40
2023-04-09T06:56:52.328Z,9.50
2023-04-09T06:59:20.257Z,9.50
2023-04-09T07:01:48.298Z,9.60
2023-04-09T07:04:16.328Z,9.50
2023-04-09T07:06:44.302Z,9.50
2023-04-09T07:09:12.150Z,9.60
2023-04-09T07:11:40.082Z,9.60
2023-04-09T07:14:09.366Z,9.70
2023-04-09T07:16:37.464Z,9.80
2023-04-09T07:19:07.442Z,9.80
2023-04-09T07:21:35.572Z,9.90
2023-04-09T07:24:03.565Z,10.00
2023-04-09T07:26:31.678Z,10.10
2023-04-09T07:28:59.770Z,10.10
2023-04-09T07:31:29.151Z,10.10
2023-04-09T07:33:57.333Z,10.20
2023-04-09T07:36:25.864Z,10.30
2023-04-09T07:38:54.033Z,10.40
2023-04-09T07:41:22.427Z,10.50
2023-04-09T07:43:50.281Z,10.70
2023-04-09T07:46:21.721Z,10.80
2023-04-09T07:48:51.380Z,10.80
2023-04-09T07:51:20.388Z,10.90
2023-04-09T07:53:48.292Z,11.00
2023-04-09T07:56:16.352Z,11.20
2023-04-09T07:58:44.768Z,11.40
2023-04-09T08:01:12.681Z,11.40
2023-04-09T08:03:40.926Z,11.50
2023-04-09T08:06:10.319Z,11.40
2023-04-09T08:08:40.810Z,11.40
2023-04-09T08:11:08.725Z,11.40
2023-04-09T08:13:36.561Z,11.40
2023-04-09T08:16:04.921Z,11.50
2023-04-09T08:18:33.498Z,11.60
2023-04-09T08:21:07.571Z,11.80
2023-04-09T08:23:49.105Z,12.00
2023-04-09T08:26:23.404Z,11.90
2023-04-09T08:29:03.968Z,12.00
2023-04-09T08:31:44.327Z,12.00
2023-04-09T08:34:40.131Z,11.90
2023-04-09T08:37:19.978Z,11.80
2023-04-09T08:40:09.120Z,11.70
2023-04-09T08:45:29.707Z,11.90
2023-04-09T08:48:11.362Z,12.00
2023-04-09T08:50:56.690Z,12.00
2023-04-09T08:53:25.487Z,12.20
2023-04-09T08:55:54.826Z,12.40
2023-04-09T08:58:22.802Z,12.40
2023-04-09T09:00:50.767Z,12.20
2023-04-09T09:03:18.792Z,12.20
2023-04-09T09:05:47.803Z,12.20
2023-04-09T09:08:26.067Z,12.30
2023-04-09T09:11:00.506Z,12.50
2023-04-09T09:13:31.278Z,12.60
2023-04-09T09:16:19.772Z,12.90
2023-04-09T09:18:50.744Z,13.10
2023-04-09T09:21:22.181Z,13.30
2023-04-09T09:23:58.271Z,13.50
2023-04-09T09:26:32.077Z,13.90
2023-04-09T09:29:05.832Z,14.00
2023-04-09T09:31:47.445Z,14.10
2023-04-09T09:34:15.775Z,14.30
2023-04-09T09:36:44.876Z,14.10
2023-04-09T09:39:13.823Z,14.20
2023-04-09T09:41:43.559Z,14.30
2023-04-09T09:44:13.100Z,14.40
2023-04-09T09:46:42.558Z,14.50
2023-04-09T09:49:10.931Z,14.50
2023-04-09T09:51:41.375Z,14.60
2023-04-09T09:54:10.740Z,14.70
2023-04-09T09:56:43.125Z,14.70
2023-04-09T09:59:16.885Z,14.80
2023-04-09T10:01:46.568Z,15.00
2023-04-09T10:04:16.395Z,15.00
2023-04-09T10:06:45.987Z,15.10
2023-04-09T10:09:14.667Z,14.90
2023-04-09T10:11:45.499Z,14.60
2023-04-09T10:14:15.437Z,14.50
2023-04-09T10:16:43.985Z,14.50
2023-04-09T10:19:14.009Z,14.60
2023-04-09T10:21:46.316Z,14.80
2023-04-09T10:24:15.928Z,14.90
2023-04-09T10:26:46.123Z,14.90
2023-04-09T10:29:17.020Z,15.00
2023-04-09T10:31:52.245Z,15.10
2023-04-09T10:34:22.553Z,15.30
2023-04-09T10:36:56.438Z,15.40
2023-04-09T10:39:27.954Z,15.50
2023-04-09T10:41:57.052Z,15.50
2023-04-09T10:44:28.048Z,15.50
2023-04-09T10:46:57.161Z,15.50
2023-04-09T10:49:27.012Z,15.60
2023-04-09T10:52:02.288Z,15.70
2023-04-09T10:54:43.671Z,15.90
2023-04-09T10:57:13.668Z,16.00
2023-04-09T10:59:45.087Z,15.90
2023-04-09T11:02:57.217Z,15.80
2023-04-09T11:05:31.911Z,15.80
2023-04-09T11:08:05.467Z,15.80
2023-04-09T11:10:33.966Z,16.00
2023-04-09T11:13:02.669Z,16.10
2023-04-09T11:15:33.299Z,16.20
2023-04-09T11:18:02.245Z,16.20
2023-04-09T11:20:31.226Z,16.20
2023-04-09T11:23:00.837Z,16.20
2023-04-09T11:25:30.040Z,16.20
2023-04-09T11:27:58.150Z,16.20
2023-04-09T11:30:26.301Z,15.90
2023-04-09T11:32:56.301Z,16.00
2023-04-09T11:35:24.899Z,16.50
2023-04-09T11:37:53.162Z,17.00
2023-04-09T11:40:23.683Z,18.20
2023-04-09T11:42:53.278Z,19.10
2023-04-09T11:45:23.407Z,19.00
2023-04-09T11:47:52.118Z,18.40
2023-04-09T11:50:23.004Z,17.90
2023-04-09T11:52:51.339Z,17.30
2023-04-09T11:55:26.924Z,16.70
2023-04-09T11:57:58.205Z,16.30
2023-04-09T12:00:26.415Z,15.90
2023-04-09T12:03:02.453Z,15.70
2023-04-09T12:05:33.758Z,15.80
2023-04-09T12:08:05.600Z,15.80
2023-04-09T12:10:35.381Z,15.80
2023-04-09T12:13:04.614Z,15.80
2023-04-09T12:15:34.759Z,15.60
2023-04-09T12:18:03.571Z,15.60
2023-04-09T12:20:36.647Z,15.50
2023-04-09T12:23:06.355Z,15.50
2023-04-09T12:25:36.725Z,15.50
2023-04-09T12:28:05.684Z,15.60
2023-04-09T12:30:33.827Z,15.60
2023-04-09T12:33:02.379Z,15.60
2023-04-09T12:35:30.502Z,15.60
2023-04-09T12:38:00.724Z,15.50
2023-04-09T12:40:29.225Z,15.60
2023-04-09T12:42:57.183Z,16.00
2023-04-09T12:45:25.089Z,16.70
2023-04-09T12:47:53.108Z,17.50
2023-04-09T12:50:21.098Z,17.80
2023-04-09T12:52:48.915Z,18.00
2023-04-09T12:55:18.176Z,18.00
2023-04-09T12:57:47.192Z,18.00
2023-04-09T13:00:16.331Z,18.00
2023-04-09T13:02:44.550Z,18.10
2023-04-09T13:05:12.575Z,18.20
2023-04-09T13:07:42.852Z,17.90
2023-04-09T13:10:11.737Z,17.70
2023-04-09T13:12:41.183Z,18.80
2023-04-09T13:15:09.589Z,20.80
2023-04-09T13:17:37.568Z,22.30
2023-04-09T13:20:06.924Z,23.40
2023-04-09T13:22:34.833Z,24.80
2023-04-09T13:25:02.705Z,26.30
2023-04-09T13:27:30.671Z,26.70
2023-04-09T13:29:59.983Z,26.40
2023-04-09T13:32:27.831Z,25.40
2023-04-09T13:34:57.746Z,24.60
2023-04-09T13:37:26.023Z,24.50
2023-04-09T13:39:53.915Z,24.60
2023-04-09T13:42:21.830Z,24.40
2023-04-09T13:44:49.803Z,23.90
2023-04-09T13:47:19.165Z,23.30
2023-04-09T13:49:47.019Z,22.00
2023-04-09T13:52:15.047Z,21.20
2023-04-09T13:54:42.931Z,21.00
2023-04-09T13:57:11.248Z,20.90
2023-04-09T13:59:41.645Z,20.70
2023-04-09T14:02:10.284Z,20.20
2023-04-09T14:04:40.002Z,19.80
2023-04-09T14:07:08.424Z,19.50
2023-04-09T14:09:36.337Z,19.10
2023-04-09T14:12:04.397Z,18.70
2023-04-09T14:14:32.494Z,18.70
2023-04-09T14:17:00.451Z,18.50
2023-04-09T14:19:28.374Z,18.30
2023-04-09T14:21:57.669Z,18.20
2023-04-09T14:24:25.650Z,17.90
2023-04-09T14:26:53.732Z,17.60
2023-04-09T14:29:22.510Z,17.40
2023-04-09T14:31:51.653Z,17.20
2023-04-09T14:34:19.550Z,17.20
2023-04-09T14:36:47.590Z,17.00
2023-04-09T14:39:17.658Z,17.00
2023-04-09T14:41:45.682Z,17.20
2023-04-09T14:44:13.595Z,17.40
2023-04-09T14:46:41.682Z,17.50
2023-04-09T14:49:09.915Z,17.50
2023-04-09T14:51:37.906Z,17.50
2023-04-09T14:54:06.039Z,17.40
2023-04-09T14:56:35.342Z,17.50
2023-04-09T14:59:03.304Z,17.60
2023-04-09T15:01:33.036Z,17.60
2023-04-09T15:04:01.670Z,17.60
2023-04-09T15:06:31.313Z,17.70
2023-04-09T15:08:59.164Z,17.60
2023-04-09T15:11:27.905Z,17.60
2023-04-09T15:13:57.839Z,17.60
2023-04-09T15:16:27.881Z,17.60
2023-04-09T15:18:58.513Z,17.40
2023-04-09T15:21:27.148Z,17.30
2023-04-09T15:23:56.262Z,17.20
2023-04-09T15:26:24.182Z,17.20
2023-04-09T15:28:53.474Z,17.20
2023-04-09T15:31:22.974Z,17.10
2023-04-09T15:33:51.216Z,17.10
2023-04-09T15:36:19.330Z,17.10
2023-04-09T15:38:47.274Z,17.10
2023-04-09T15:41:17.014Z,17.00
2023-04-09T15:43:44.933Z,17.00
2023-04-09T15:46:12.952Z,17.00
2023-04-09T15:48:42.296Z,17.00
2023-04-09T15:51:10.560Z,16.90
2023-04-09T15:53:38.587Z,16.90
2023-04-09T15:56:07.418Z,17.00
2023-04-09T15:58:36.139Z,17.00
2023-04-09T16:01:09.028Z,16.90
2023-04-09T16:03:43.067Z,16.90
2023-04-09T16:06:14.611Z,16.80
2023-04-09T16:08:42.981Z,16.80
2023-04-09T16:11:11.775Z,16.70
2023-04-09T16:13:40.310Z,16.60
2023-04-09T16:16:12.001Z,16.50
2023-04-09T16:18:40.543Z,16.40
2023-04-09T16:21:09.182Z,16.30
2023-04-09T16:23:39.992Z,16.20
2023-04-09T16:26:08.680Z,16.20
2023-04-09T16:28:37.306Z,16.20
2023-04-09T16:31:06.118Z,16.20
2023-04-09T16:33:34.514Z,16.20
2023-04-09T16:36:03.129Z,16.20
2023-04-09T16:38:31.674Z,16.20
2023-04-09T16:41:01.924Z,16.10
2023-04-09T16:43:31.639Z,16.00
2023-04-09T16:46:00.556Z,15.90
2023-04-09T16:48:29.207Z,15.90
2023-04-09T16:50:58.719Z,15.90
2023-04-09T16:53:27.102Z,15.90
2023-04-09T16:55:57.403Z,16.00
2023-04-09T16:58:27.545Z,16.10
2023-04-09T17:00:56.796Z,16.10
2023-04-09T17:03:25.424Z,16.20
2023-04-09T17:05:57.443Z,16.30
2023-04-09T17:08:26.187Z,16.30
2023-04-09T17:11:02.208Z,16.30
2023-04-09T17:13:37.505Z,16.30
2023-04-09T17:16:06.550Z,16.30
2023-04-09T17:18:35.066Z,16.10
2023-04-09T17:21:03.575Z,16.00
2023-04-09T17:23:32.225Z,15.90
2023-04-09T17:26:03.423Z,15.80
2023-04-09T17:28:33.870Z,15.80
2023-04-09T17:31:02.727Z,15.70
2023-04-09T17:33:32.419Z,15.50
2023-04-09T17:36:01.572Z,15.30
2023-04-09T17:38:31.210Z,15.10
2023-04-09T17:41:00.510Z,14.90
2023-04-09T17:43:29.106Z,14.80
2023-04-09T17:45:59.153Z,14.70
2023-04-09T17:48:30.113Z,14.60
2023-04-09T17:50:59.913Z,14.50
2023-04-09T17:53:28.472Z,14.50
2023-04-09T17:55:57.055Z,14.40
2023-04-09T17:58:26.152Z,14.20
2023-04-09T18:00:55.817Z,14.20
2023-04-09T18:03:27.166Z,14.20
2023-04-09T18:05:56.176Z,14.10
2023-04-09T18:08:25.401Z,14.10
2023-04-09T18:11:11.427Z,14.00
2023-04-09T18:13:41.677Z,14.00
2023-04-09T18:16:13.048Z,13.80
2023-04-09T18:18:43.363Z,13.80
2023-04-09T18:21:15.437Z,13.60
2023-04-09T18:23:44.128Z,13.50
2023-04-09T18:26:17.216Z,13.40
2023-04-09T18:28:45.985Z,13.30
2023-04-09T18:31:14.720Z,13.20
2023-04-09T18:33:57.160Z,13.10
2023-04-09T18:36:30.737Z,13.10
2023-04-09T18:39:00.834Z,12.90
2023-04-09T18:41:30.260Z,12.80
2023-04-09T18:44:10.109Z,12.80
2023-04-09T18:46:38.803Z,12.70
2023-04-09T18:49:13.005Z,12.70
2023-04-09T18:51:51.845Z,12.60
2023-04-09T18:54:29.204Z,12.60
2023-04-09T18:57:04.508Z,12.50
2023-04-09T18:59:42.267Z,12.50
2023-04-09T19:02:18.838Z,12.40
2023-04-09T19:04:53.056Z,12.40
2023-04-09T19:07:22.186Z,12.40
2023-04-09T19:09:57.857Z,12.30
2023-04-09T19:12:28.772Z,12.20
2023-04-09T19:14:57.191Z,12.20
2023-04-09T19:17:40.634Z,12.10
2023-04-09T19:20:22.070Z,12.10
2023-04-09T19:22:54.663Z,12.00
2023-04-09T19:25:29.092Z,11.90
2023-04-09T19:28:16.328Z,11.80
2023-04-09T19:30:57.930Z,11.70
2023-04-09T19:33:43.497Z,11.60
2023-04-09T19:36:18.216Z,11.50
2023-04-09T19:38:47.182Z,11.40
2023-04-09T19:41:20.708Z,11.40
2023-04-09T19:44:05.126Z,11.30
2023-04-09T19:46:43.958Z,11.30
2023-04-09T19:49:25.353Z,11.20
2023-04-09T19:52:03.135Z,11.10
2023-04-09T19:54:34.810Z,11.00
2023-04-09T19:57:06.855Z,11.00
2023-04-09T19:59:44.069Z,11.00
2023-04-09T20:02:19.867Z,10.90
2023-04-09T20:04:56.365Z,10.90
2023-04-09T20:07:34.401Z,10.80
2023-04-09T20:10:03.818Z,10.80
2023-04-09T20:12:42.289Z,10.70
2023-04-09T20:15:22.578Z,10.70
2023-04-09T20:17:57.948Z,10.60
2023-04-09T20:20:29.212Z,10.60
2023-04-09T20:23:03.777Z,10.50
2023-04-09T20:25:35.313Z,10.50
2023-04-09T20:28:04.900Z,10.50
2023-04-09T20:30:37.309Z,10.40
2023-04-09T20:33:14.443Z,10.40
2023-04-09T20:35:46.775Z,10.40
2023-04-09T20:38:20.826Z,10.40
2023-04-09T20:40:53.028Z,10.50
2023-04-09T20:43:36.386Z,10.60
2023-04-09T20:46:06.871Z,10.70
2023-04-09T20:48:35.961Z,10.70
2023-04-09T20:51:19.333Z,10.80
2023-04-09T20:53:54.127Z,10.80
2023-04-09T20:56:32.134Z,10.80
2023-04-09T20:59:09.608Z,10.90
2023-04-09T21:01:43.389Z,10.90
2023-04-09T21:04:26.789Z,10.90
2023-04-09T21:06:57.271Z,10.90
2023-04-09T21:09:34.187Z,10.90
2023-04-09T21:12:19.613Z,10.90
2023-04-09T21:15:11.820Z,10.90
2023-04-09T21:17:56.387Z,10.90
2023-04-09T21:20:38.905Z,10.80
2023-04-09T21:23:12.833Z,10.70
2023-04-09T21:25:48.589Z,10.70
2023-04-09T21:28:28.405Z,10.60
2023-04-09T21:30:58.092Z,10.60
2023-04-09T21:33:35.958Z,10.60
2023-04-09T21:36:05.890Z,10.60
2023-04-09T21:38:38.805Z,10.60
2023-04-09T21:41:12.324Z,10.60
2023-04-09T21:43:43.608Z,10.60
2023-04-09T21:46:14.031Z,10.50
2023-04-09T21:48:43.160Z,10.40
2023-04-09T21:51:12.159Z,10.40
2023-04-09T21:53:47.646Z,10.30
2023-04-09T21:56:19.365Z,10.20
2023-04-09T21:58:47.823Z,10.20
2023-04-09T22:01:29.125Z,10.20
2023-04-09T22:04:03.961Z,10.10
2023-04-09T22:06:38.435Z,10.00
2023-04-09T22:09:21.745Z,10.00
2023-04-09T22:11:58.099Z,9.90
2023-04-09T22:14:32.324Z,9.90
2023-04-09T22:17:09.091Z,9.90
2023-04-09T22:19:49.529Z,9.80
2023-04-09T22:22:23.920Z,9.80
2023-04-09T22:25:08.466Z,9.70
2023-04-09T22:27:46.445Z,9.60
2023-04-09T22:30:30.318Z,9.50
2023-04-09T22:33:05.983Z,9.50
2023-04-09T22:35:48.771Z,9.40
2023-04-09T22:38:41.442Z,9.40
2023-04-09T22:41:18.738Z,9.20
2023-04-09T22:43:57.943Z,9.20
2023-04-09T22:46:39.040Z,9.10
2023-04-09T22:49:19.226Z,9.00
2023-04-09T22:51:52.013Z,8.90
2023-04-09T22:54:24.913Z,8.90
2023-04-09T22:56:54.425Z,8.80
2023-04-09T23:02:26.345Z,8.70
2023-04-09T23:04:57.373Z,8.60
2023-04-09T23:07:38.945Z,8.50
2023-04-09T23:10:14.096Z,8.50
2023-04-09T23:12:42.051Z,8.40
2023-04-09T23:15:12.350Z,8.40
2023-04-09T23:17:41.431Z,8.40
2023-04-09T23:20:11.254Z,8.40
2023-04-09T23:22:39.154Z,8.30
2023-04-09T23:25:07.432Z,8.30
2023-04-09T23:27:35.273Z,8.30
2023-04-09T23:30:03.235Z,8.30
2023-04-09T23:32:32.874Z,8.30
2023-04-09T23:35:01.190Z,8.30
2023-04-09T23:37:29.109Z,8.20
2023-04-09T23:39:57.033Z,8.20
2023-04-09T23:42:26.120Z,8.10
2023-04-09T23:44:53.987Z,8.10
2023-04-09T23:47:22.160Z,8.00
2023-04-09T23:49:51.359Z,8.00
2023-04-09T23:52:19.200Z,8.00
2023-04-09T23:54:51.120Z,7.90
2023-04-09T23:57:19.134Z,7.90
2023-04-09T23:59:47.562Z,7.90
